createdAt,value
2018-09-01T00:04:36.259Z,12.60
2018-09-01T00:10:40.217Z,12.50
2018-09-01T00:16:43.848Z,12.50
2018-09-01T00:22:47.303Z,12.30
2018-09-01T00:28:51.135Z,12.30
2018-09-01T00:34:54.805Z,12.20
2018-09-01T00:40:58.258Z,12.20
2018-09-01T00:47:02.153Z,12.20
2018-09-01T00:53:05.950Z,12.10
2018-09-01T00:59:09.394Z,11.90
2018-09-01T01:05:13.450Z,11.80
2018-09-01T01:11:17.448Z,11.70
2018-09-01T01:17:21.459Z,11.70
2018-09-01T01:23:25.016Z,11.60
2018-09-01T01:29:28.802Z,11.50
2018-09-01T01:35:32.747Z,11.40
2018-09-01T01:41:37.862Z,11.30
2018-09-01T01:47:41.927Z,11.30
2018-09-01T01:53:45.843Z,11.30
2018-09-01T01:59:49.264Z,11.30
2018-09-01T02:05:52.781Z,11.30
2018-09-01T02:11:56.452Z,11.20
2018-09-01T02:17:59.992Z,11.10
2018-09-01T02:24:03.865Z,11.00
2018-09-01T02:30:07.775Z,10.90
2018-09-01T02:36:11.834Z,10.80
2018-09-01T02:42:15.303Z,10.80
2018-09-01T02:48:20.035Z,10.80
2018-09-01T02:54:24.184Z,10.70
2018-09-01T03:00:33.263Z,10.70
2018-09-01T03:06:56.582Z,10.70
2018-09-01T03:13:00.660Z,10.70
2018-09-01T03:19:10.914Z,10.60
2018-09-01T03:25:14.363Z,10.50
2018-09-01T03:31:17.999Z,10.40
2018-09-01T03:37:21.716Z,10.30
2018-09-01T03:43:25.690Z,10.20
2018-09-01T03:49:30.112Z,10.10
2018-09-01T03:55:33.937Z,10.10
2018-09-01T04:01:37.538Z,10.10
2018-09-01T04:07:41.253Z,10.00
2018-09-01T04:13:45.157Z,9.90
2018-09-01T04:19:49.890Z,9.80
2018-09-01T04:25:53.661Z,9.80
2018-09-01T04:31:57.899Z,9.60
2018-09-01T04:38:01.495Z,9.70
2018-09-01T04:44:05.343Z,9.60
2018-09-01T04:50:09.124Z,9.60
2018-09-01T04:56:12.546Z,9.60
2018-09-01T05:02:16.214Z,9.60
2018-09-01T05:08:20.314Z,9.70
2018-09-01T05:14:23.945Z,9.80
2018-09-01T05:20:28.588Z,9.80
2018-09-01T05:26:33.451Z,9.90
2018-09-01T05:32:37.208Z,10.00
2018-09-01T05:38:40.662Z,10.10
2018-09-01T05:44:44.675Z,10.20
2018-09-01T05:50:51.432Z,10.40
2018-09-01T05:56:55.135Z,10.50
2018-09-01T06:02:59.698Z,10.70
2018-09-01T06:09:04.578Z,10.80
2018-09-01T06:15:09.278Z,11.00
2018-09-01T06:21:13.761Z,11.10
2018-09-01T06:27:22.945Z,11.30
2018-09-01T06:33:27.139Z,11.60
2018-09-01T06:39:30.619Z,11.80
2018-09-01T06:45:34.213Z,12.10
2018-09-01T06:51:37.751Z,12.30
2018-09-01T06:57:41.192Z,12.60
2018-09-01T07:03:44.945Z,12.80
2018-09-01T07:09:49.465Z,13.10
2018-09-01T07:15:53.294Z,13.30
2018-09-01T07:21:56.925Z,13.60
2018-09-01T07:28:00.730Z,13.90
2018-09-01T07:34:04.814Z,14.10
2018-09-01T07:40:15.664Z,14.40
2018-09-01T07:46:19.798Z,14.60
2018-09-01T07:52:24.181Z,14.90
2018-09-01T07:58:28.930Z,15.10
2018-09-01T08:04:32.537Z,15.30
2018-09-01T08:10:36.250Z,15.40
2018-09-01T08:16:39.920Z,15.50
2018-09-01T08:22:43.712Z,15.70
2018-09-01T08:28:47.490Z,15.80
2018-09-01T08:34:51.301Z,15.90
2018-09-01T08:40:55.104Z,16.10
2018-09-01T08:46:58.659Z,16.20
2018-09-01T08:53:03.186Z,16.40
2018-09-01T08:59:06.931Z,16.60
2018-09-01T09:05:10.571Z,16.80
2018-09-01T09:11:14.305Z,16.90
2018-09-01T09:17:18.923Z,17.10
2018-09-01T09:23:22.614Z,17.40
2018-09-01T09:29:26.145Z,17.60
2018-09-01T09:35:29.898Z,17.90
2018-09-01T09:41:34.020Z,18.10
2018-09-01T09:47:38.486Z,18.30
2018-09-01T09:53:42.214Z,18.40
2018-09-01T09:59:46.334Z,18.30
2018-09-01T10:05:50.175Z,18.30
2018-09-01T10:11:53.865Z,18.40
2018-09-01T10:17:57.625Z,18.70
2018-09-01T10:24:01.457Z,19.10
2018-09-01T10:30:05.123Z,19.20
2018-09-01T10:36:09.218Z,19.00
2018-09-01T10:42:13.163Z,18.80
2018-09-01T10:48:16.907Z,18.80
2018-09-01T10:54:21.044Z,18.90
2018-09-01T11:00:24.775Z,18.80
2018-09-01T11:06:28.784Z,18.90
2018-09-01T11:12:32.423Z,19.50
2018-09-01T11:18:36.134Z,19.90
2018-09-01T11:24:39.893Z,19.60
2018-09-01T11:30:43.935Z,19.30
2018-09-01T11:36:47.887Z,19.50
2018-09-01T11:42:51.400Z,20.00
2018-09-01T11:48:55.108Z,20.30
2018-09-01T11:54:58.656Z,20.10
2018-09-01T12:01:02.321Z,20.20
2018-09-01T12:07:06.373Z,20.30
2018-09-01T12:13:10.028Z,20.70
2018-09-01T12:19:16.176Z,20.80
2018-09-01T12:25:19.734Z,21.10
2018-09-01T12:31:23.885Z,21.20
2018-09-01T12:37:28.135Z,21.60
2018-09-01T12:43:32.225Z,21.70
2018-09-01T12:49:36.235Z,21.00
2018-09-01T12:55:44.583Z,21.10
2018-09-01T13:01:48.456Z,21.10
2018-09-01T13:07:53.129Z,21.10
2018-09-01T13:13:56.797Z,21.30
2018-09-01T13:20:00.430Z,21.50
2018-09-01T13:26:06.056Z,21.80
2018-09-01T13:32:09.873Z,21.60
2018-09-01T13:38:14.406Z,21.60
2018-09-01T13:44:18.608Z,21.90
2018-09-01T13:50:22.154Z,22.20
2018-09-01T13:56:25.899Z,22.50
2018-09-01T14:02:32.502Z,22.80
2018-09-01T14:08:36.137Z,22.40
2018-09-01T14:14:40.024Z,22.10
2018-09-01T14:20:44.036Z,21.70
2018-09-01T14:26:47.518Z,22.00
2018-09-01T14:32:51.303Z,22.50
2018-09-01T14:38:54.738Z,23.00
2018-09-01T14:44:58.738Z,23.00
2018-09-01T14:51:02.794Z,22.20
2018-09-01T14:57:06.463Z,21.90
2018-09-01T15:03:10.058Z,22.70
2018-09-01T15:09:14.347Z,23.50
2018-09-01T15:15:17.862Z,24.00
2018-09-01T15:21:22.510Z,24.30
2018-09-01T15:27:26.022Z,23.60
2018-09-01T15:33:30.718Z,22.60
2018-09-01T15:39:34.742Z,22.40
2018-09-01T15:45:38.551Z,23.30
2018-09-01T15:51:42.165Z,23.80
2018-09-01T15:57:45.897Z,24.10
2018-09-01T16:03:49.608Z,23.60
2018-09-01T16:09:53.106Z,22.70
2018-09-01T16:15:56.690Z,22.20
2018-09-01T16:22:00.594Z,22.00
2018-09-01T16:28:04.510Z,21.80
2018-09-01T16:34:08.313Z,21.80
2018-09-01T16:40:12.177Z,21.40
2018-09-01T16:46:15.949Z,21.00
2018-09-01T16:52:19.839Z,20.90
2018-09-01T16:58:23.485Z,20.90
2018-09-01T17:04:27.108Z,20.80
2018-09-01T17:10:30.503Z,20.70
2018-09-01T17:16:34.355Z,20.60
2018-09-01T17:22:37.862Z,20.40
2018-09-01T17:28:48.799Z,20.20
2018-09-01T17:34:52.679Z,20.00
2018-09-01T17:40:56.341Z,19.90
2018-09-01T17:47:00.804Z,19.80
2018-09-01T17:53:04.979Z,19.60
2018-09-01T17:59:08.708Z,19.50
2018-09-01T18:05:13.056Z,19.30
2018-09-01T18:11:17.134Z,19.20
2018-09-01T18:17:21.095Z,19.00
2018-09-01T18:23:31.656Z,18.80
2018-09-01T18:29:37.564Z,18.60
2018-09-01T18:35:40.952Z,18.40
2018-09-01T18:41:44.751Z,18.30
2018-09-01T18:47:48.217Z,18.10
2018-09-01T18:53:52.867Z,18.00
2018-09-01T18:59:56.285Z,17.70
2018-09-01T19:06:00.295Z,17.50
2018-09-01T19:12:04.732Z,17.20
2018-09-01T19:18:14.980Z,17.00
2018-09-01T19:24:18.515Z,16.70
2018-09-01T19:30:22.232Z,16.50
2018-09-01T19:36:25.667Z,16.30
2018-09-01T19:42:29.207Z,16.10
2018-09-01T19:48:32.880Z,15.80
2018-09-01T19:54:36.322Z,15.80
2018-09-01T20:00:40.071Z,15.70
2018-09-01T20:06:44.081Z,15.50
2018-09-01T20:12:47.809Z,15.30
2018-09-01T20:18:51.614Z,15.20
2018-09-01T20:24:55.233Z,15.00
2018-09-01T20:30:59.448Z,14.70
2018-09-01T20:37:02.833Z,14.60
2018-09-01T20:43:06.402Z,14.40
2018-09-01T20:49:09.834Z,14.40
2018-09-01T20:55:13.248Z,14.30
2018-09-01T21:01:16.743Z,14.30
2018-09-01T21:07:20.378Z,14.10
2018-09-01T21:13:24.611Z,14.10
2018-09-01T21:19:28.063Z,14.00
2018-09-01T21:25:31.533Z,13.90
2018-09-01T21:31:40.106Z,13.90
2018-09-01T21:37:44.487Z,13.70
2018-09-01T21:43:49.647Z,13.60
2018-09-01T21:49:53.207Z,13.50
2018-09-01T21:55:58.121Z,13.40
2018-09-01T22:02:07.325Z,13.40
2018-09-01T22:08:10.962Z,13.40
2018-09-01T22:14:14.697Z,13.30
2018-09-01T22:20:19.212Z,13.20
2018-09-01T22:26:25.133Z,13.10
2018-09-01T22:32:28.957Z,13.10
2018-09-01T22:38:32.530Z,13.00
2018-09-01T22:44:36.929Z,13.00
2018-09-01T22:50:40.550Z,13.00
2018-09-01T22:56:44.256Z,12.90
2018-09-01T23:02:48.180Z,12.80
2018-09-01T23:08:52.364Z,12.80
2018-09-01T23:14:55.986Z,12.90
2018-09-01T23:20:59.810Z,12.90
2018-09-01T23:27:04.338Z,13.00
2018-09-01T23:33:08.197Z,13.10
2018-09-01T23:39:12.124Z,13.20
2018-09-01T23:45:15.658Z,13.30
2018-09-01T23:51:19.268Z,13.40
2018-09-01T23:57:23.778Z,13.50
